Time;durP1;ratioP1;P1;durP2;ratioP2;P2;SDS_P1;SDS_P2;PMS_P1;PMS_P2;Temp;Humidity;BMP_temperature;BMP_pressure;BME280_temperature;BME280_humidity;BME280_pressure;Samples;Min_cycle;Max_cycle;Signal;HPM_P1;HPM_P2
2022/07/24 00:01:10;;;;;;;17.40;12.40;;;;;;;22.51;74.48;100357.16;104913;1276;95185;-83
2022/07/24 00:03:38;;;;;;;17.30;12.30;;;;;;;22.49;74.40;100358.45;104785;1276;138658;-82
2022/07/24 00:06:06;;;;;;;16.60;13.00;;;;;;;22.49;74.35;100358.84;104834;1276;100385;-82
2022/07/24 00:08:34;;;;;;;17.50;12.70;;;;;;;22.47;74.64;100360.63;104646;1276;140385;-82
2022/07/24 00:11:02;;;;;;;18.10;12.50;;;;;;;22.46;74.72;100358.70;104818;1276;95228;-82
2022/07/24 00:13:30;;;;;;;16.70;12.40;;;;;;;22.45;74.73;100362.89;104748;1276;95228;-83
2022/07/24 00:15:58;;;;;;;18.90;13.00;;;;;;;22.43;74.90;100361.95;104630;1276;139514;-82
2022/07/24 00:18:26;;;;;;;19.00;13.20;;;;;;;22.43;74.93;100363.48;104824;1276;97138;-82
2022/07/24 00:20:54;;;;;;;17.80;13.20;;;;;;;22.44;74.75;100364.81;104732;1276;140366;-82
2022/07/24 00:23:25;;;;;;;17.90;12.80;;;;;;;22.47;74.85;100364.42;104802;1276;95213;-82
2022/07/24 00:25:53;;;;;;;16.40;13.90;;;;;;;22.44;74.90;100367.66;104828;1276;139074;-82
2022/07/24 00:28:21;;;;;;;17.40;13.30;;;;;;;22.37;74.86;100367.13;104838;1276;110250;-82
2022/07/24 00:30:49;;;;;;;17.20;12.80;;;;;;;22.29;75.18;100366.83;104895;1276;99897;-82
2022/07/24 00:33:17;;;;;;;17.20;13.00;;;;;;;22.21;75.58;100367.02;104682;1276;140822;-82
2022/07/24 00:35:45;;;;;;;17.40;13.30;;;;;;;22.15;75.54;100368.20;104904;1276;95759;-83
2022/07/24 00:38:13;;;;;;;15.80;13.20;;;;;;;22.14;75.90;100369.78;104787;1276;141636;-84
2022/07/24 00:40:41;;;;;;;16.10;12.90;;;;;;;22.12;75.87;100374.46;105011;1276;110439;-84
2022/07/24 00:43:09;;;;;;;17.60;12.70;;;;;;;22.09;76.04;100376.27;104806;1276;99056;-83
2022/07/24 00:45:37;;;;;;;17.20;12.90;;;;;;;22.06;76.19;100377.23;104608;1278;141214;-82
2022/07/24 00:48:06;;;;;;;17.20;13.10;;;;;;;22.08;76.05;100374.42;104728;1276;95631;-83
2022/07/24 00:50:35;;;;;;;17.20;13.20;;;;;;;22.05;76.09;100381.98;104725;1276;139415;-82
2022/07/24 00:53:04;;;;;;;20.50;13.80;;;;;;;22.02;76.23;100381.28;104794;1276;108715;-83
2022/07/24 00:55:34;;;;;;;16.20;12.70;;;;;;;22.02;76.22;100383.28;104835;1276;99366;-82
2022/07/24 00:58:01;;;;;;;17.80;13.70;;;;;;;21.98;76.17;100389.90;104818;1276;106492;-83
2022/07/24 01:00:30;;;;;;;16.40;12.50;;;;;;;21.94;76.38;100388.98;104918;1276;95490;-82
2022/07/24 01:02:58;;;;;;;18.40;14.10;;;;;;;21.87;76.65;100389.98;104667;1276;140381;-83
2022/07/24 01:05:26;;;;;;;16.20;13.10;;;;;;;21.84;76.64;100393.14;104806;1276;107660;-84
2022/07/24 01:07:54;;;;;;;16.30;12.40;;;;;;;21.85;76.68;100400.31;104800;1276;140869;-83
2022/07/24 01:10:22;;;;;;;16.80;13.10;;;;;;;21.84;76.43;100400.51;105005;1276;108211;-84
2022/07/24 01:12:50;;;;;;;17.80;13.20;;;;;;;21.83;76.56;100401.13;105102;1276;97082;-85
2022/07/24 01:15:18;;;;;;;16.70;12.90;;;;;;;21.81;76.47;100400.90;104692;1276;140469;-84
2022/07/24 01:17:45;;;;;;;15.20;12.50;;;;;;;21.81;76.48;100403.48;105017;1275;109150;-83
2022/07/24 01:20:13;;;;;;;17.00;13.00;;;;;;;21.79;76.35;100401.44;104987;1276;141937;-84
2022/07/24 01:22:41;;;;;;;14.20;11.60;;;;;;;21.77;76.29;100403.05;105046;1276;109361;-83
2022/07/24 01:25:10;;;;;;;15.40;12.70;;;;;;;21.74;76.45;100402.40;104884;1276;94865;-84
2022/07/24 01:27:39;;;;;;;16.50;12.70;;;;;;;21.75;76.37;100402.50;104934;1276;140684;-83
2022/07/24 01:30:07;;;;;;;16.10;11.90;;;;;;;21.71;76.46;100408.38;104997;1276;109728;-84
2022/07/24 01:32:35;;;;;;;13.70;10.50;;;;;;;21.67;75.73;100409.17;104838;1276;139390;-84
2022/07/24 01:35:04;;;;;;;12.50;8.70;;;;;;;21.59;74.09;100416.48;104887;1276;109372;-83
2022/07/24 01:37:32;;;;;;;9.90;5.90;;;;;;;21.41;71.49;100418.25;104947;1276;95514;-79
2022/07/24 01:40:00;;;;;;;7.50;4.00;;;;;;;21.22;69.66;100421.73;104951;1276;95263;-81
2022/07/24 01:42:29;;;;;;;6.30;3.20;;;;;;;21.00;67.70;100423.61;105025;1277;110129;-81
2022/07/24 01:44:57;;;;;;;5.90;3.20;;;;;;;20.83;67.23;100424.44;105234;1276;139327;-83
2022/07/24 01:47:25;;;;;;;6.70;3.10;;;;;;;20.65;66.25;100430.02;105263;1276;110080;-84
2022/07/24 01:49:53;;;;;;;7.10;2.60;;;;;;;20.41;66.30;100436.23;105234;1276;138968;-82
2022/07/24 01:52:24;;;;;;;5.90;2.50;;;;;;;20.25;66.76;100435.19;105321;1276;95959;-82
2022/07/24 01:54:53;;;;;;;5.00;2.50;;;;;;;20.10;67.07;100434.88;105314;1276;110317;-83
2022/07/24 01:57:21;;;;;;;5.00;2.70;;;;;;;20.00;67.70;100437.89;105272;1276;138946;-83
2022/07/24 01:59:50;;;;;;;5.40;2.30;;;;;;;19.92;67.93;100437.15;105269;1276;107506;-83
2022/07/24 02:02:17;;;;;;;5.80;2.40;;;;;;;19.84;68.06;100436.95;105280;1276;139120;-84
2022/07/24 02:04:45;;;;;;;7.20;2.60;;;;;;;19.77;68.11;100444.20;105258;1276;95202;-82
2022/07/24 02:07:13;;;;;;;5.50;2.50;;;;;;;19.73;68.85;100449.29;105200;1276;110300;-83
2022/07/24 02:09:41;;;;;;;6.30;2.80;;;;;;;19.75;68.94;100452.45;105165;1276;138693;-82
2022/07/24 02:12:09;;;;;;;5.70;2.60;;;;;;;19.73;68.98;100449.69;105212;1276;107787;-81
2022/07/24 02:14:37;;;;;;;5.50;2.30;;;;;;;19.75;68.93;100454.39;105209;1276;139979;-80
2022/07/24 02:17:05;;;;;;;5.30;2.50;;;;;;;19.75;68.76;100455.30;105450;1276;95283;-84
2022/07/24 02:19:33;;;;;;;7.00;2.30;;;;;;;19.69;68.54;100455.83;105280;1276;110152;-82
2022/07/24 02:22:02;;;;;;;6.80;2.20;;;;;;;19.62;68.80;100455.56;105352;1276;99145;-81
2022/07/24 02:24:30;;;;;;;5.30;2.20;;;;;;;19.59;68.74;100451.11;105375;1276;108719;-81
2022/07/24 02:26:58;;;;;;;6.30;2.20;;;;;;;19.57;68.69;100451.55;105160;1276;140316;-82
2022/07/24 02:29:30;;;;;;;6.20;2.20;;;;;;;19.61;68.57;100447.76;105419;1276;95231;-81
2022/07/24 02:31:59;;;;;;;7.20;2.40;;;;;;;19.59;68.68;100453.04;105171;1276;138998;-82
2022/07/24 02:34:27;;;;;;;6.00;2.30;;;;;;;19.56;68.30;100453.63;105379;1276;98937;-82
2022/07/24 02:36:54;;;;;;;5.70;2.10;;;;;;;19.55;68.59;100456.38;105344;1276;107934;-82
2022/07/24 02:39:22;;;;;;;6.70;2.50;;;;;;;19.54;68.78;100456.61;105504;1276;137994;-81
2022/07/24 02:41:50;;;;;;;6.20;2.30;;;;;;;19.50;68.86;100450.39;105487;1276;95660;-81
2022/07/24 02:44:18;;;;;;;6.40;2.20;;;;;;;19.46;68.80;100447.20;105351;1276;141591;-82
2022/07/24 02:46:46;;;;;;;5.70;2.20;;;;;;;19.48;69.06;100446.00;105438;1276;100155;-81
2022/07/24 02:49:14;;;;;;;5.60;2.10;;;;;;;19.50;68.92;100441.75;105527;1276;108238;-81
2022/07/24 02:51:42;;;;;;;5.80;2.30;;;;;;;19.51;69.00;100439.71;105466;1276;138718;-83
2022/07/24 02:54:11;;;;;;;4.80;2.00;;;;;;;19.50;68.86;100440.30;105499;1276;95121;-82
2022/07/24 02:56:39;;;;;;;4.80;2.00;;;;;;;19.49;68.44;100442.16;105455;1276;140565;-82
2022/07/24 02:59:07;;;;;;;6.40;2.00;;;;;;;19.46;68.50;100443.80;105631;1276;98144;-82
2022/07/24 03:01:35;;;;;;;6.10;2.30;;;;;;;19.45;68.94;100446.23;105497;1276;138680;-82
2022/07/24 03:04:03;;;;;;;5.00;2.20;;;;;;;19.44;69.10;100444.50;105543;1276;95208;-82
2022/07/24 03:06:32;;;;;;;6.10;2.30;;;;;;;19.47;68.66;100450.94;105754;1276;95058;-82
2022/07/24 03:08:59;;;;;;;5.10;2.10;;;;;;;19.45;68.89;100450.86;105626;1276;140155;-82
2022/07/24 03:11:28;;;;;;;5.80;2.20;;;;;;;19.45;68.96;100454.13;105767;1276;100047;-82
2022/07/24 03:13:56;;;;;;;6.50;2.20;;;;;;;19.46;68.87;100458.92;105535;1276;137273;-81
2022/07/24 03:16:24;;;;;;;4.90;2.10;;;;;;;19.52;68.89;100461.27;105466;1277;95249;-83
2022/07/24 03:18:52;;;;;;;7.20;2.90;;;;;;;19.58;68.87;100468.47;105545;1276;94856;-83
2022/07/24 03:21:20;;;;;;;7.20;2.90;;;;;;;19.59;69.12;100469.09;105401;1276;138773;-83
2022/07/24 03:24:08;;;;;;;6.10;2.70;;;;;;;19.61;69.44;100469.14;105606;1276;99848;-84
2022/07/24 03:26:36;;;;;;;7.00;2.80;;;;;;;19.64;69.64;100476.02;105507;1276;141068;-83
2022/07/24 03:29:03;;;;;;;5.80;2.80;;;;;;;19.63;69.71;100474.29;105505;1276;95744;-81
2022/07/24 03:31:32;;;;;;;8.20;2.70;;;;;;;19.63;69.86;100473.54;105494;1276;95122;-82
2022/07/24 03:34:01;;;;;;;7.00;2.80;;;;;;;19.65;69.83;100473.23;105618;1276;109416;-82
2022/07/24 03:36:29;;;;;;;6.00;2.80;;;;;;;19.61;70.01;100478.19;105592;1276;99916;-81
2022/07/24 03:38:57;;;;;;;6.90;2.60;;;;;;;19.61;69.80;100480.38;105322;1276;139096;-82
2022/07/24 03:41:25;;;;;;;7.60;2.60;;;;;;;19.59;69.68;100485.88;105557;1276;95198;-82
2022/07/24 03:43:52;;;;;;;6.00;2.40;;;;;;;19.60;69.37;100487.76;105480;1276;140840;-82
2022/07/24 03:46:21;;;;;;;5.10;2.30;;;;;;;19.62;69.18;100485.50;105589;1276;111240;-81
2022/07/24 03:48:48;;;;;;;10.00;2.50;;;;;;;19.61;68.95;100488.59;105456;1276;99048;-81
2022/07/24 03:51:16;;;;;;;5.50;2.20;;;;;;;19.56;68.83;100489.63;105394;1276;140018;-82
2022/07/24 03:53:46;;;;;;;6.60;2.30;;;;;;;19.52;68.81;100492.20;105510;1277;96861;-82
2022/07/24 03:56:16;;;;;;;6.00;2.30;;;;;;;19.55;68.82;100493.68;105340;1276;139965;-82
2022/07/24 03:58:44;;;;;;;7.30;2.40;;;;;;;19.52;68.66;100495.26;105432;1276;110056;-81
2022/07/24 04:01:12;;;;;;;6.20;2.40;;;;;;;19.48;68.72;100494.29;105679;1276;98635;-81
2022/07/24 04:03:40;;;;;;;6.70;2.50;;;;;;;19.44;68.84;100494.89;105555;1276;137812;-81
2022/07/24 04:06:08;;;;;;;6.80;2.20;;;;;;;19.46;69.01;100494.92;105702;1276;95227;-81
2022/07/24 04:08:36;;;;;;;7.20;2.30;;;;;;;19.49;69.28;100498.90;105686;1276;138375;-81
2022/07/24 04:11:04;;;;;;;5.80;2.40;;;;;;;19.49;69.33;100501.80;107440;1276;109164;-81
2022/07/24 04:13:31;;;;;;;5.10;2.50;;;;;;;19.53;69.46;100505.48;107579;1276;99297;-81
2022/07/24 04:16:00;;;;;;;7.80;2.70;;;;;;;19.52;69.32;100507.69;106694;1276;138448;-80
2022/07/24 04:18:27;;;;;;;7.10;2.50;;;;;;;19.48;69.58;100510.31;105513;1276;95588;-81
2022/07/24 04:20:56;;;;;;;6.40;2.50;;;;;;;19.48;69.87;100512.85;105463;1276;140269;-81
2022/07/24 04:23:24;;;;;;;5.80;2.40;;;;;;;19.45;70.04;100511.94;105595;1276;108643;-81
2022/07/24 04:25:52;;;;;;;7.90;2.30;;;;;;;19.43;69.74;100510.23;105640;1276;141338;-81
2022/07/24 04:28:19;;;;;;;7.00;2.60;;;;;;;19.45;69.72;100510.33;105546;1276;109007;-81
2022/07/24 04:30:47;;;;;;;6.00;2.60;;;;;;;19.42;69.81;100514.64;105567;1276;95567;-81
2022/07/24 04:33:15;;;;;;;5.90;2.50;;;;;;;19.42;69.64;100513.00;105469;1276;139761;-80
2022/07/24 04:35:43;;;;;;;6.50;2.50;;;;;;;19.44;69.34;100513.59;105590;1276;106882;-80
2022/07/24 04:38:11;;;;;;;6.60;2.60;;;;;;;19.50;69.45;100515.59;105484;1276;138663;-81
2022/07/24 04:40:40;;;;;;;9.70;2.80;;;;;;;19.51;69.52;100515.50;105428;1276;107782;-80
2022/07/24 04:43:08;;;;;;;6.60;2.80;;;;;;;19.46;69.69;100516.73;105424;1277;95417;-82
2022/07/24 04:45:38;;;;;;;6.90;2.40;;;;;;;19.50;69.83;100521.72;105360;1276;139935;-82
2022/07/24 04:48:06;;;;;;;8.10;2.90;;;;;;;19.49;69.60;100518.67;105564;1276;110212;-82
2022/07/24 04:50:34;;;;;;;7.70;2.90;;;;;;;19.50;69.63;100520.42;105299;1276;140276;-81
2022/07/24 04:53:02;;;;;;;9.10;3.10;;;;;;;19.51;69.64;100523.63;105470;1276;109841;-81
2022/07/24 04:55:30;;;;;;;8.10;2.60;;;;;;;19.48;69.80;100525.76;105370;1276;95971;-81
2022/07/24 04:57:57;;;;;;;6.40;2.50;;;;;;;19.53;69.84;100521.89;105350;1276;139368;-81
2022/07/24 05:00:25;;;;;;;6.00;2.70;;;;;;;19.60;69.53;100523.29;105510;1276;109136;-81
2022/07/24 05:02:53;;;;;;;7.70;3.00;;;;;;;19.66;69.64;100523.60;105415;1276;140280;-81
2022/07/24 05:05:21;;;;;;;8.90;3.10;;;;;;;19.72;69.55;100522.48;105341;1276;109717;-81
2022/07/24 05:07:49;;;;;;;7.60;2.90;;;;;;;19.69;69.16;100520.73;105322;1276;139075;-81
2022/07/24 05:10:17;;;;;;;8.80;3.00;;;;;;;19.68;69.45;100528.54;105482;1276;95857;-81
2022/07/24 05:12:45;;;;;;;7.90;2.90;;;;;;;19.76;69.25;100530.22;105519;1276;110173;-81
2022/07/24 05:15:13;;;;;;;7.70;3.10;;;;;;;19.80;69.05;100529.23;105308;1276;138744;-82
2022/07/24 05:17:41;;;;;;;8.60;3.30;;;;;;;19.80;68.85;100528.49;105468;1276;109684;-81
2022/07/24 05:20:09;;;;;;;7.10;2.90;;;;;;;19.87;68.99;100531.85;105325;1276;140476;-80
2022/07/24 05:22:37;;;;;;;6.10;2.70;;;;;;;19.92;67.92;100535.52;105505;1276;95228;-81
2022/07/24 05:25:06;;;;;;;7.30;3.00;;;;;;;19.94;67.43;100537.93;105378;1276;107441;-81
2022/07/24 05:27:34;;;;;;;7.10;2.60;;;;;;;19.99;67.02;100537.27;105391;1276;137712;-80
2022/07/24 05:30:04;;;;;;;5.30;2.30;;;;;;;19.96;64.56;100538.52;105465;1276;108219;-82
2022/07/24 05:32:32;;;;;;;5.70;2.10;;;;;;;19.85;63.35;100532.88;105340;1276;138594;-82
2022/07/24 05:35:01;;;;;;;6.20;2.10;;;;;;;19.84;63.90;100537.45;105353;1276;96883;-82
2022/07/24 05:37:29;;;;;;;5.60;1.80;;;;;;;19.85;63.29;100538.82;105382;1276;109570;-80
2022/07/24 05:39:57;;;;;;;4.60;1.80;;;;;;;19.85;62.92;100541.19;105460;1276;139983;-81
2022/07/24 05:42:25;;;;;;;4.60;1.80;;;;;;;19.85;62.73;100537.22;105488;1276;108625;-80
2022/07/24 05:44:54;;;;;;;6.50;1.90;;;;;;;19.90;62.61;100537.64;105547;1276;138943;-80
2022/07/24 05:47:22;;;;;;;5.30;1.80;;;;;;;19.96;62.43;100540.67;105642;1276;95792;-80
2022/07/24 05:49:49;;;;;;;5.30;1.80;;;;;;;19.93;61.70;100541.80;105201;1276;140167;-80
2022/07/24 05:52:17;;;;;;;4.10;1.80;;;;;;;19.83;60.99;100545.28;105379;1276;97215;-80
2022/07/24 05:54:45;;;;;;;6.40;1.90;;;;;;;19.78;61.11;100542.49;105380;1276;109243;-81
2022/07/24 05:57:13;;;;;;;5.90;1.60;;;;;;;19.76;60.56;100543.52;105173;1276;140953;-80
2022/07/24 05:59:41;;;;;;;5.90;1.80;;;;;;;19.74;61.21;100545.10;105335;1276;95752;-80
2022/07/24 06:02:09;;;;;;;5.90;1.90;;;;;;;19.79;61.49;100546.26;105426;1276;139884;-78
2022/07/24 06:04:41;;;;;;;6.20;1.70;;;;;;;19.84;61.81;100547.38;105615;1276;99878;-80
2022/07/24 06:07:10;;;;;;;5.70;1.80;;;;;;;19.87;61.75;100548.95;105347;1276;108813;-80
2022/07/24 06:09:39;;;;;;;5.80;2.00;;;;;;;19.90;61.98;100549.17;105426;1276;138667;-80
2022/07/24 06:12:08;;;;;;;7.00;2.10;;;;;;;19.97;61.90;100550.35;105559;1276;95152;-81
2022/07/24 06:14:35;;;;;;;7.00;2.10;;;;;;;20.00;61.81;100553.91;105343;1276;140434;-80
2022/07/24 06:17:03;;;;;;;4.60;1.80;;;;;;;20.02;61.67;100554.52;105423;1276;100606;-80
2022/07/24 06:19:31;;;;;;;5.80;2.10;;;;;;;20.02;62.08;100558.52;105573;1276;108306;-81
2022/07/24 06:21:59;;;;;;;6.00;2.10;;;;;;;19.98;61.31;100559.13;105311;1276;138065;-81
2022/07/24 06:24:27;;;;;;;6.20;1.90;;;;;;;19.91;61.65;100558.29;105356;1276;95008;-80
2022/07/24 06:26:55;;;;;;;6.10;1.80;;;;;;;19.87;61.74;100552.19;105238;1276;139296;-81
2022/07/24 06:29:40;;;;;;;4.80;1.90;;;;;;;19.92;61.48;100553.75;105327;1276;99118;-81
2022/07/24 06:32:08;;;;;;;5.30;1.70;;;;;;;19.95;61.56;100551.39;105367;1276;139020;-80
2022/07/24 06:34:36;;;;;;;5.40;1.70;;;;;;;20.00;61.19;100557.19;105483;1276;95273;-81
2022/07/24 06:37:04;;;;;;;4.60;1.50;;;;;;;19.99;59.97;100558.69;105543;1276;95857;-80
2022/07/24 06:39:32;;;;;;;6.20;1.40;;;;;;;19.94;58.89;100557.92;105398;1276;138427;-82
2022/07/24 06:42:00;;;;;;;5.30;1.60;;;;;;;19.96;59.60;100559.64;105271;1276;100647;-85
2022/07/24 06:44:29;;;;;;;5.40;1.30;;;;;;;19.93;58.78;100560.88;105525;1276;138853;-82
2022/07/24 06:46:57;;;;;;;5.30;1.30;;;;;;;19.89;58.73;100558.95;105223;1276;95318;-79
2022/07/24 06:49:25;;;;;;;4.70;1.40;;;;;;;19.89;58.73;100557.19;105302;1276;95080;-82
2022/07/24 06:51:52;;;;;;;5.20;1.30;;;;;;;19.89;58.86;100556.44;105166;1276;139899;-80
2022/07/24 06:54:22;;;;;;;5.40;1.40;;;;;;;19.88;59.23;100560.81;105415;1276;99900;-80
2022/07/24 06:56:49;;;;;;;5.20;1.20;;;;;;;19.87;59.82;100561.22;105333;1276;140600;-81
2022/07/24 06:59:19;;;;;;;3.80;1.20;;;;;;;19.97;59.20;100567.10;105381;1276;95746;-81
2022/07/24 07:01:47;;;;;;;5.80;1.40;;;;;;;20.00;58.37;100570.54;105498;1276;139100;-80
2022/07/24 07:04:15;;;;;;;6.30;1.70;;;;;;;20.00;58.37;100570.48;105619;1276;110285;-81
2022/07/24 07:06:43;;;;;;;5.50;1.40;;;;;;;20.02;58.10;100571.13;105285;1276;99680;-81
2022/07/24 07:09:11;;;;;;;5.40;1.50;;;;;;;20.06;58.72;100569.60;105131;1277;137642;-80
2022/07/24 07:11:39;;;;;;;4.60;1.30;;;;;;;20.14;59.22;100573.43;105204;1276;95321;-81
2022/07/24 07:14:07;;;;;;;4.40;1.40;;;;;;;20.19;58.76;100576.34;105528;1276;139936;-82
2022/07/24 07:16:39;;;;;;;4.40;1.40;;;;;;;20.18;58.71;100574.61;105409;1277;110222;-80
2022/07/24 07:19:07;;;;;;;4.60;1.50;;;;;;;20.19;58.51;100572.19;105508;1277;100080;-80
2022/07/24 07:21:36;;;;;;;5.50;1.40;;;;;;;20.21;58.71;100572.06;105409;1276;138683;-81
2022/07/24 07:24:07;;;;;;;4.30;1.40;;;;;;;20.22;57.56;100570.61;105707;1276;95267;-83
2022/07/24 07:26:35;;;;;;;4.80;1.30;;;;;;;20.23;57.82;100574.11;105439;1276;141246;-79
2022/07/24 07:29:02;;;;;;;5.20;1.60;;;;;;;20.28;57.42;100577.42;105347;1276;108697;-81
2022/07/24 07:31:31;;;;;;;5.00;1.50;;;;;;;20.31;57.51;100580.25;105463;1278;99041;-82
2022/07/24 07:33:59;;;;;;;5.40;1.60;;;;;;;20.41;57.93;100580.74;105301;1277;139930;-80
2022/07/24 07:36:27;;;;;;;6.00;2.00;;;;;;;20.53;57.85;100582.83;105528;1276;95721;-80
2022/07/24 07:38:57;;;;;;;4.90;2.10;;;;;;;20.62;57.29;100586.92;105335;1277;140421;-80
2022/07/24 07:41:25;;;;;;;5.10;2.30;;;;;;;20.61;56.50;100583.63;105625;1277;109290;-80
2022/07/24 07:43:53;;;;;;;5.70;2.60;;;;;;;20.61;56.91;100588.08;105426;1278;139970;-80
2022/07/24 07:46:21;;;;;;;5.60;2.80;;;;;;;20.62;56.66;100590.70;105647;1277;106740;-80
2022/07/24 07:48:49;;;;;;;6.10;2.80;;;;;;;20.64;56.78;100590.95;105651;1277;95628;-82
2022/07/24 07:51:17;;;;;;;4.90;2.50;;;;;;;20.67;56.49;100585.71;105484;1279;139542;-79
2022/07/24 07:53:50;;;;;;;5.00;2.60;;;;;;;20.69;56.27;100588.82;105918;1276;108301;-80
2022/07/24 07:56:20;;;;;;;5.60;2.30;;;;;;;20.77;55.86;100592.34;106028;1276;140536;-83
2022/07/24 07:58:50;;;;;;;5.70;1.60;;;;;;;20.90;55.56;100593.24;105429;1277;108334;-82
2022/07/24 08:01:17;;;;;;;4.60;2.00;;;;;;;21.05;54.50;100596.40;105788;1278;95224;-82
2022/07/24 08:03:45;;;;;;;4.90;1.80;;;;;;;21.12;54.30;100598.34;105263;1278;139707;-79
2022/07/24 08:06:13;;;;;;;4.70;1.80;;;;;;;21.17;54.32;100601.01;105652;1278;110051;-82
2022/07/24 08:08:42;;;;;;;4.10;1.40;;;;;;;21.24;54.22;100600.04;105369;1277;138446;-81
2022/07/24 08:11:10;;;;;;;4.50;1.70;;;;;;;21.32;54.22;100606.35;105501;1276;107385;-81
2022/07/24 08:13:38;;;;;;;5.40;1.70;;;;;;;21.43;54.53;100605.04;105449;1276;139144;-83
2022/07/24 08:16:06;;;;;;;4.50;1.70;;;;;;;21.60;54.90;100605.00;105614;1276;95507;-80
2022/07/24 08:18:34;;;;;;;5.40;1.60;;;;;;;21.67;54.24;100609.73;105333;1279;109136;-79
2022/07/24 08:21:02;;;;;;;5.60;1.80;;;;;;;21.66;53.77;100610.36;105662;1279;137794;-81
2022/07/24 08:23:30;;;;;;;4.60;1.50;;;;;;;21.75;53.61;100616.48;105723;1276;109357;-79
2022/07/24 08:25:58;;;;;;;5.10;1.70;;;;;;;21.92;53.79;100604.05;105567;1276;140698;-81
2022/07/24 08:28:26;;;;;;;3.90;1.60;;;;;;;22.02;53.57;100606.73;105299;1278;95098;-82
2022/07/24 08:30:54;;;;;;;4.40;1.70;;;;;;;22.04;53.67;100606.84;105488;1277;110227;-81
2022/07/24 08:33:22;;;;;;;5.30;1.90;;;;;;;22.23;53.76;100610.16;105443;1276;139852;-82
2022/07/24 08:35:50;;;;;;;4.60;1.70;;;;;;;22.41;53.32;100614.90;105165;1277;109556;-82
2022/07/24 08:38:18;;;;;;;4.30;2.00;;;;;;;22.51;52.51;100614.48;105207;1277;140173;-80
2022/07/24 08:40:46;;;;;;;3.70;1.50;;;;;;;22.58;52.26;100614.41;105665;1277;95078;-80
2022/07/24 08:43:14;;;;;;;4.60;1.60;;;;;;;22.49;52.59;100620.45;105655;1279;110704;-81
2022/07/24 08:45:43;;;;;;;5.70;1.90;;;;;;;22.28;52.40;100623.93;105503;1279;140098;-81
2022/07/24 08:48:12;;;;;;;4.80;2.10;;;;;;;22.08;52.98;100623.49;106450;1276;109794;-79
2022/07/24 08:50:42;;;;;;;5.40;2.10;;;;;;;21.97;53.10;100623.41;106946;1276;140341;-81
2022/07/24 08:53:10;;;;;;;4.70;2.10;;;;;;;21.93;53.85;100627.68;107108;1277;94033;-80
2022/07/24 08:55:39;;;;;;;5.20;2.30;;;;;;;21.88;53.51;100630.19;105574;1276;140347;-77
2022/07/24 08:58:07;;;;;;;4.00;1.90;;;;;;;21.84;54.03;100629.54;105343;1277;97371;-81
2022/07/24 09:00:34;;;;;;;6.80;2.30;;;;;;;21.77;54.67;100638.69;105466;1276;108440;-82
2022/07/24 09:03:02;;;;;;;5.00;2.30;;;;;;;21.66;54.89;100637.63;105454;1279;140686;-79
2022/07/24 09:05:34;;;;;;;5.40;2.50;;;;;;;21.59;55.09;100638.48;105709;1277;96696;-80
2022/07/24 09:08:10;;;;;;;6.20;2.60;;;;;;;21.56;55.20;100635.67;105230;1276;139400;-83
2022/07/24 09:10:38;;;;;;;5.70;2.80;;;;;;;21.53;55.13;100633.96;105353;1277;98954;-81
2022/07/24 09:13:16;;;;;;;5.60;3.10;;;;;;;21.68;55.61;100634.83;105470;1276;109562;-81
2022/07/24 09:15:48;;;;;;;5.50;3.20;;;;;;;22.09;55.65;100630.85;105277;1276;139121;-80
2022/07/24 09:18:32;;;;;;;5.20;2.60;;;;;;;22.39;54.78;100633.44;105561;1276;95562;-80
2022/07/24 09:21:12;;;;;;;5.50;2.70;;;;;;;22.56;53.96;100637.52;105133;1276;140314;-81
2022/07/24 09:23:41;;;;;;;5.30;2.70;;;;;;;22.65;53.41;100636.33;105499;1276;100793;-79
2022/07/24 09:26:09;;;;;;;5.00;2.60;;;;;;;22.66;53.52;100636.06;105528;1276;139734;-80
2022/07/24 09:28:55;;;;;;;4.90;2.30;;;;;;;22.79;52.97;100636.86;104843;1277;96493;-81
2022/07/24 09:31:23;;;;;;;4.50;2.00;;;;;;;23.07;52.46;100633.40;105557;1277;95131;-80
2022/07/24 09:33:51;;;;;;;4.60;2.10;;;;;;;23.39;52.03;100635.34;105300;1277;136855;-80
2022/07/24 09:36:20;;;;;;;5.30;2.60;;;;;;;23.53;51.43;100630.45;105353;1277;99902;-80
2022/07/24 09:38:50;;;;;;;5.30;2.40;;;;;;;23.83;51.18;100629.64;105239;1279;137557;-82
2022/07/24 09:41:24;;;;;;;4.10;2.70;;;;;;;24.27;50.02;100631.45;104992;1278;95184;-80
2022/07/24 09:44:03;;;;;;;5.30;2.60;;;;;;;24.13;49.16;100638.30;105093;1278;139050;-81
2022/07/24 09:46:55;;;;;;;4.30;2.10;;;;;;;23.79;49.33;100640.94;105330;1277;107451;-80
2022/07/24 09:49:24;;;;;;;3.50;1.50;;;;;;;23.46;49.71;100643.87;105826;1278;98891;-80
2022/07/24 09:52:04;;;;;;;4.30;1.90;;;;;;;23.26;50.37;100645.39;105234;1277;138474;-81
2022/07/24 09:54:36;;;;;;;4.10;1.90;;;;;;;23.06;50.70;100650.32;105728;1277;95619;-81
2022/07/24 09:57:37;;;;;;;6.10;2.20;;;;;;;22.79;51.37;100644.64;105478;1276;138812;-81
2022/07/24 10:00:07;;;;;;;4.20;2.00;;;;;;;22.59;51.98;100646.70;105042;1278;111918;-79
2022/07/24 10:02:36;;;;;;;4.50;2.40;;;;;;;22.48;52.48;100649.84;105596;1277;140072;-80
2022/07/24 10:05:06;;;;;;;4.10;2.00;;;;;;;22.35;52.72;100651.12;105734;1277;108359;-80
2022/07/24 10:07:35;;;;;;;4.90;2.10;;;;;;;22.21;53.21;100649.69;105840;1277;95225;-82
2022/07/24 10:10:03;;;;;;;3.90;2.30;;;;;;;22.18;54.15;100649.81;105779;1277;94371;-80
2022/07/24 10:12:33;;;;;;;4.30;2.20;;;;;;;22.21;54.01;100652.42;105368;1277;109170;-80
2022/07/24 10:15:02;;;;;;;4.60;2.40;;;;;;;22.23;54.02;100650.65;105168;1277;141124;-81
2022/07/24 10:17:52;;;;;;;5.00;2.40;;;;;;;22.33;54.20;100653.08;105292;1277;109572;-80
2022/07/24 10:20:43;;;;;;;4.20;2.20;;;;;;;22.62;54.14;100655.52;105185;1277;139464;-81
2022/07/24 10:23:49;;;;;;;4.70;2.60;;;;;;;22.86;53.67;100658.45;105252;1277;95666;-81
2022/07/24 10:26:41;;;;;;;4.60;2.70;;;;;;;22.87;52.97;100658.05;105390;1277;139928;-81
2022/07/24 10:29:19;;;;;;;4.30;2.40;;;;;;;22.71;53.45;100662.13;105596;1277;98978;-80
2022/07/24 10:31:50;;;;;;;4.20;2.20;;;;;;;22.52;53.82;100666.02;105225;1277;139449;-81
2022/07/24 10:34:21;;;;;;;5.30;2.50;;;;;;;22.38;53.95;100666.06;105371;1277;95344;-82
2022/07/24 10:36:59;;;;;;;4.80;2.20;;;;;;;22.26;54.20;100666.02;105182;1277;95154;-82
2022/07/24 10:39:55;;;;;;;4.70;2.20;;;;;;;22.23;54.62;100666.94;105080;1277;139600;-81
2022/07/24 10:42:25;;;;;;;4.20;2.10;;;;;;;22.23;54.72;100669.16;105375;1277;99920;-81
2022/07/24 10:45:14;;;;;;;4.70;2.10;;;;;;;22.22;54.97;100668.64;105242;1277;138645;-82
2022/07/24 10:47:42;;;;;;;5.70;2.20;;;;;;;22.31;54.98;100670.02;105173;1277;190182;-81
2022/07/24 10:50:11;;;;;;;4.50;2.00;;;;;;;22.37;54.99;100673.02;105033;1277;138452;-82
2022/07/24 10:52:42;;;;;;;4.20;1.90;;;;;;;22.42;54.86;100667.46;105027;1277;110226;-83
2022/07/24 10:55:34;;;;;;;4.60;2.10;;;;;;;22.53;55.00;100672.09;105205;1277;98882;-81
2022/07/24 10:58:08;;;;;;;4.00;1.90;;;;;;;22.67;55.06;100673.41;105216;1278;107929;-82
2022/07/24 11:00:40;;;;;;;4.60;2.20;;;;;;;22.70;54.77;100673.00;105346;1277;95349;-82
2022/07/24 11:03:29;;;;;;;4.70;2.00;;;;;;;22.72;54.97;100672.14;105063;1276;139361;-81
2022/07/24 11:06:08;;;;;;;3.90;1.90;;;;;;;22.83;55.14;100674.05;105206;1277;111072;-81
2022/07/24 11:08:39;;;;;;;3.90;1.90;;;;;;;22.85;54.56;100672.27;105091;1277;139005;-80
2022/07/24 11:11:10;;;;;;;4.50;2.20;;;;;;;22.93;54.67;100673.89;105308;1277;109898;-82
2022/07/24 11:13:41;;;;;;;4.30;1.80;;;;;;;22.99;54.14;100670.71;105220;1276;139224;-80
2022/07/24 11:16:18;;;;;;;5.30;1.90;;;;;;;23.08;54.60;100673.00;105324;1278;95182;-81
2022/07/24 11:18:49;;;;;;;4.10;2.20;;;;;;;23.13;54.29;100670.45;105237;1277;109341;-80
2022/07/24 11:21:38;;;;;;;4.60;2.10;;;;;;;23.15;54.16;100672.83;105160;1277;140153;-81